Details From KCXP - Carson
To KSLE - McNary Fld
Flight Number -
Tags decoded
Created
Modified
Stats Distance 394 nm / 730 km
Max Altitude 0 ft / 0 m
Waypoints 6
Social Downloads 0
Likes 0
Share VATSIM

Download

Looking for another format? Having issues loading an existing format? Contact us
Advertisement - Login to hide

Notes

Requested: KCXP FMG LMT EUG GLORR KSLE

Route

KCXP FMG LMT EUG GLORR KSLE

ID Type Via Altitude Latitude Longitude Leg Dist Tot Dist Heading (true) Name
O KCXP APT - 0 ft / 0 m 39.19223˚ -119.73445˚ - 0 nm - Carson
FMG VOR - 0 ft / 0 m 39.53128˚ -119.65608˚ 20 nm 20 nm 10° / 10° MUSTANG VORTAC
LMT VOR - 0 ft / 0 m 42.15314˚ -121.72753˚ 183 nm 204 nm 330° / 328° KLAMATH FALLS VORTAC
EUG VOR - 0 ft / 0 m 44.12089˚ -123.22283˚ 135 nm 339 nm 331° / 330° EUGENE VORTAC
GLORR FIX - 0 ft / 0 m 44.65114˚ -122.79336˚ 36 nm 376 nm 30° / 30° -
O KSLE APT - 0 ft / 0 m 44.90951˚ -123.00255˚ 17 nm 393 nm 330° / 330° McNary Fld

Altitude Profile

Advertisement - Login to hide

Weather


0- 5 10 15 20 25 30 35+ Temperature / ° C

Clouds and Precipitation
Forecast for 2017-12-11 06:00 UTC. Updated an hour ago

Ground ~20,000 ft ~40,000 ft Winds

KCXP

Details ICAO KCXP
Name Carson
Region United States
Timezone America/Los_Angeles (UTC-8.0)
Stats Elevation 4,697 ft / 1,432 m (AMSL)
Location 39.192232° -119.734450°
Runways 1
Magnetic Variation 13.333° E

METAR

KCXP 110615Z AUTO 00000KT 10SM CLR M06/M09 A3053 RMK AO2

Decode

TAF

KCXP 110521Z 1106/1206 VRB03KT P6SM FEW250 FM112000 08010KT P6SM FEW250 FM120100 VRB03KT P6SM FEW250

Decode

Departure Runways

ID Width Length Bearing (true) Bearing (mag) Surface Threshold Offset Overrun Length
09 75 ft / 23 m 5,912 ft / 1,802 m 106.65° 93.32° Asphalt 0 ft / 0 m 0 ft / 0 m
27 75 ft / 23 m 5,912 ft / 1,802 m 286.67° 273.34° Asphalt 0 ft / 0 m 0 ft / 0 m

KSLE

Details ICAO KSLE (SLE)
Name McNary Fld
Region United States
Timezone America/Los_Angeles (UTC-8.0)
Stats Elevation 214 ft / 65 m (AMSL)
Location 44.909509° -123.002551°
Runways 2
Magnetic Variation 15.204° E

METAR

KSLE 110556Z AUTO 30003KT 10SM CLR 00/M04 A3033 RMK AO2 SLP274 T00001044 10067 21006 53008

Decode

TAF

KSLE 110531Z 1106/1206 VRB03KT P6SM FEW250

Decode

Destination Runways

ID Width Length Bearing (true) Bearing (mag) Surface Threshold Offset Overrun Length
13 150 ft / 46 m 5,811 ft / 1,771 m 150.17° 134.97° Asphalt 0 ft / 0 m 0 ft / 0 m
16 100 ft / 30 m 5,149 ft / 1,569 m 180.77° 165.57° Asphalt 0 ft / 0 m 0 ft / 0 m
31 150 ft / 46 m 5,811 ft / 1,771 m 330.17° 314.97° Asphalt 0 ft / 0 m 0 ft / 0 m
34 100 ft / 30 m 5,149 ft / 1,569 m 0.76° 345.56° Asphalt 0 ft / 0 m 0 ft / 0 m

Approach Navaids

Runway Type Ident Frequency Range Bearing (true) Bearing (mag) Slope Elevation
31 Localiser ISLE 110.30 MHz 18 nm / 33 km 330.17° 314.97° - 189 ft / 58 m (AMSL)
31 Glidescope ISLE 110.30 MHz 10 nm / 19 km 330.17° 314.97° 3.00° 210 ft / 64 m (AMSL)
31 DME ISLE 110.30 MHz 18 nm / 33 km - - - 204 ft / 62 m (AMSL)